Time;durP1;ratioP1;P1;durP2;ratioP2;P2;SDS_P1;SDS_P2;PMS_P1;PMS_P2;Temp;Humidity;BMP_temperature;BMP_pressure;BME280_temperature;BME280_humidity;BME280_pressure;Samples;Min_cycle;Max_cycle;Signal;HPM_P1;HPM_P2
2022/01/31 00:02:12;;;;;;;14.30;3.90;;;;;;;;;;4926264;29;20048;-77
2022/01/31 00:04:38;;;;;;;13.23;3.30;;;;;;;;;;4926579;29;20039;-78
2022/01/31 00:07:05;;;;;;;13.90;3.15;;;;;;;;;;4926488;29;20427;-77
2022/01/31 00:09:30;;;;;;;15.55;3.80;;;;;;;;;;4926322;29;20051;-78
2022/01/31 00:12:01;;;;;;;14.30;3.50;;;;;;;;;;4900588;29;20047;-77
2022/01/31 00:16:59;;;;;;;15.75;3.67;;;;;;;;;;4891624;29;20045;-77
2022/01/31 00:19:26;;;;;;;10.68;3.60;;;;;;;;;;4908508;29;20043;-76
2022/01/31 00:21:52;;;;;;;18.67;4.15;;;;;;;;;;4907014;29;20063;-78
2022/01/31 00:24:18;;;;;;;10.95;3.63;;;;;;;;;;4909189;29;20414;-77
2022/01/31 00:26:44;;;;;;;14.88;3.90;;;;;;;;;;4908719;29;20044;-77
2022/01/31 00:29:10;;;;;;;10.50;3.17;;;;;;;;;;4909619;29;20040;-78
2022/01/31 00:31:36;;;;;;;13.25;3.85;;;;;;;;;;4909024;29;20064;-78
2022/01/31 00:34:02;;;;;;;16.27;3.30;;;;;;;;;;4906969;29;20048;-77
2022/01/31 00:36:28;;;;;;;17.17;4.00;;;;;;;;;;4906132;29;20451;-77
2022/01/31 00:38:54;;;;;;;10.50;3.13;;;;;;;;;;4910174;29;20143;-78
2022/01/31 00:41:20;;;;;;;14.77;3.80;;;;;;;;;;4912361;29;20598;-77
2022/01/31 00:43:56;;;;;;;8.32;3.10;;;;;;;;;;4920191;29;20056;-78
2022/01/31 00:46:28;;;;;;;16.02;3.22;;;;;;;;;;4928558;29;20417;-78
2022/01/31 00:48:54;;;;;;;12.45;3.10;;;;;;;;;;4927453;29;20043;-78
2022/01/31 00:51:19;;;;;;;11.93;3.05;;;;;;;;;;4929660;29;20047;-77
2022/01/31 00:53:45;;;;;;;11.50;3.63;;;;;;;;;;4930444;29;20054;-77
2022/01/31 00:56:11;;;;;;;9.93;3.28;;;;;;;;;;4918831;29;20072;-78
2022/01/31 00:58:37;;;;;;;15.05;3.70;;;;;;;;;;4911473;29;20074;-78
2022/01/31 01:01:03;;;;;;;15.13;3.30;;;;;;;;;;4909575;29;20494;-78
2022/01/31 01:03:29;;;;;;;13.73;3.78;;;;;;;;;;4908553;29;20136;-77
2022/01/31 01:05:55;;;;;;;9.25;2.95;;;;;;;;;;4908471;29;20083;-77
2022/01/31 01:08:21;;;;;;;12.98;3.60;;;;;;;;;;4907801;29;20455;-76
2022/01/31 01:10:47;;;;;;;15.68;3.85;;;;;;;;;;4908423;29;20047;-77
2022/01/31 01:13:13;;;;;;;13.38;3.95;;;;;;;;;;4907577;29;20099;-77
2022/01/31 01:15:40;;;;;;;22.63;3.70;;;;;;;;;;4907604;29;20522;-79
2022/01/31 01:18:05;;;;;;;11.27;3.53;;;;;;;;;;4908667;29;20035;-78
2022/01/31 01:20:31;;;;;;;10.95;3.50;;;;;;;;;;4909395;29;20115;-78
2022/01/31 01:22:57;;;;;;;15.05;3.97;;;;;;;;;;4922488;29;20416;-78
2022/01/31 01:25:23;;;;;;;13.57;3.63;;;;;;;;;;4912095;29;21013;-78
2022/01/31 01:27:52;;;;;;;17.25;3.75;;;;;;;;;;4921698;29;20048;-78
2022/01/31 01:30:18;;;;;;;15.98;3.80;;;;;;;;;;4922129;29;20039;-78
2022/01/31 01:35:25;;;;;;;12.27;3.78;;;;;;;;;;4922300;29;20052;-78
2022/01/31 01:37:51;;;;;;;12.18;3.40;;;;;;;;;;4930679;29;20035;-78
2022/01/31 01:40:17;;;;;;;13.35;3.45;;;;;;;;;;4931034;29;20492;-78
2022/01/31 01:42:43;;;;;;;11.95;3.97;;;;;;;;;;4929748;29;20039;-79
2022/01/31 01:45:09;;;;;;;13.80;3.53;;;;;;;;;;4929322;29;20495;-77
2022/01/31 01:47:36;;;;;;;14.60;3.45;;;;;;;;;;4930388;29;20402;-77
2022/01/31 01:50:03;;;;;;;9.93;3.20;;;;;;;;;;4929685;29;20058;-77
2022/01/31 01:52:29;;;;;;;12.68;3.78;;;;;;;;;;4928956;29;20514;-76
2022/01/31 01:54:55;;;;;;;16.10;3.33;;;;;;;;;;4929755;29;20048;-77
2022/01/31 01:57:23;;;;;;;13.00;3.75;;;;;;;;;;4911349;29;20039;-76
2022/01/31 01:59:54;;;;;;;11.60;3.00;;;;;;;;;;4921759;29;20502;-77
2022/01/31 02:02:20;;;;;;;8.07;3.47;;;;;;;;;;4929751;29;20044;-77
2022/01/31 02:04:46;;;;;;;16.35;3.67;;;;;;;;;;4929878;29;20047;-76
2022/01/31 02:07:13;;;;;;;14.13;3.50;;;;;;;;;;4929206;29;20130;-77
2022/01/31 02:09:44;;;;;;;18.42;3.95;;;;;;;;;;4928341;29;20062;-77
2022/01/31 02:12:10;;;;;;;18.55;3.83;;;;;;;;;;4929432;29;20039;-79
2022/01/31 02:14:36;;;;;;;13.07;3.38;;;;;;;;;;4924082;29;20039;-78
2022/01/31 02:17:03;;;;;;;12.05;3.72;;;;;;;;;;4892073;29;20044;-78
2022/01/31 02:19:29;;;;;;;11.93;3.72;;;;;;;;;;4907809;29;20042;-78
2022/01/31 02:21:55;;;;;;;14.63;4.20;;;;;;;;;;4908071;29;20434;-78
2022/01/31 02:24:21;;;;;;;15.35;4.15;;;;;;;;;;4908246;29;20047;-78
2022/01/31 02:26:48;;;;;;;13.18;4.00;;;;;;;;;;4908222;29;20502;-78
2022/01/31 02:29:15;;;;;;;10.90;3.60;;;;;;;;;;4907946;29;20125;-76
2022/01/31 02:31:46;;;;;;;14.30;3.72;;;;;;;;;;4908319;29;20036;-79
2022/01/31 02:34:13;;;;;;;13.57;4.03;;;;;;;;;;4907527;29;20096;-79
2022/01/31 02:36:39;;;;;;;14.05;3.88;;;;;;;;;;4906091;29;20040;-78
2022/01/31 02:39:06;;;;;;;12.82;3.88;;;;;;;;;;4924426;29;20366;-77
2022/01/31 02:46:53;;;;;;;16.75;4.35;;;;;;;;;;5474958;23;20044;-84
2022/01/31 02:49:24;;;;;;;13.63;3.72;;;;;;;;;;4881520;29;20112;-84
2022/01/31 02:51:56;;;;;;;20.17;5.25;;;;;;;;;;4898344;29;20037;-83
2022/01/31 02:54:23;;;;;;;11.52;3.75;;;;;;;;;;4925231;29;20031;-81
2022/01/31 02:56:49;;;;;;;13.82;4.05;;;;;;;;;;4927052;29;20040;-82
2022/01/31 02:59:15;;;;;;;20.77;4.55;;;;;;;;;;4949960;28;20043;-83
2022/01/31 03:01:40;;;;;;;15.70;3.90;;;;;;;;;;4960357;28;20050;-84
2022/01/31 03:04:07;;;;;;;12.32;3.63;;;;;;;;;;4948340;29;20043;-77
2022/01/31 03:06:36;;;;;;;13.27;3.63;;;;;;;;;;4951880;28;20062;-81
2022/01/31 03:09:02;;;;;;;21.25;4.13;;;;;;;;;;4951942;29;20051;-84
2022/01/31 03:11:28;;;;;;;14.55;4.05;;;;;;;;;;4950306;29;20044;-82
2022/01/31 03:13:54;;;;;;;11.30;3.67;;;;;;;;;;4954425;28;20032;-84
2022/01/31 03:16:20;;;;;;;12.48;3.85;;;;;;;;;;4953025;29;20066;-82
2022/01/31 03:18:46;;;;;;;10.40;3.50;;;;;;;;;;4951445;29;20087;-82
2022/01/31 03:21:12;;;;;;;13.60;3.90;;;;;;;;;;4932018;29;20051;-80
2022/01/31 03:23:38;;;;;;;12.93;3.70;;;;;;;;;;4931613;29;20040;-80
2022/01/31 03:26:04;;;;;;;12.43;4.13;;;;;;;;;;4925060;29;20086;-83
2022/01/31 03:28:30;;;;;;;17.73;4.47;;;;;;;;;;4929341;29;20039;-84
2022/01/31 03:30:56;;;;;;;16.90;4.50;;;;;;;;;;4930861;29;20203;-83
2022/01/31 03:33:22;;;;;;;14.48;4.13;;;;;;;;;;4924154;29;20118;-83
2022/01/31 03:35:48;;;;;;;12.63;3.45;;;;;;;;;;4913262;29;20667;-81
2022/01/31 03:38:14;;;;;;;13.73;3.97;;;;;;;;;;4930686;29;20181;-82
2022/01/31 03:40:39;;;;;;;17.05;4.15;;;;;;;;;;4931056;29;20457;-84
2022/01/31 03:43:05;;;;;;;16.48;4.18;;;;;;;;;;4931046;29;20078;-82
2022/01/31 03:45:34;;;;;;;9.80;4.13;;;;;;;;;;4930831;29;20079;-84
2022/01/31 03:48:02;;;;;;;13.27;3.88;;;;;;;;;;4918715;29;20048;-83
2022/01/31 03:50:28;;;;;;;15.13;4.13;;;;;;;;;;4908339;29;20402;-84
2022/01/31 03:52:54;;;;;;;18.02;4.30;;;;;;;;;;4908294;29;20048;-84
2022/01/31 03:55:20;;;;;;;14.63;3.63;;;;;;;;;;4907370;29;20091;-83
2022/01/31 03:57:46;;;;;;;12.95;3.70;;;;;;;;;;4907537;29;20044;-83
2022/01/31 04:00:14;;;;;;;15.48;3.72;;;;;;;;;;4906646;29;20557;-83
2022/01/31 04:02:41;;;;;;;14.27;4.13;;;;;;;;;;4906336;29;20048;-84
2022/01/31 04:05:08;;;;;;;16.30;3.72;;;;;;;;;;4906847;29;20062;-82
2022/01/31 04:07:35;;;;;;;17.33;3.70;;;;;;;;;;4907249;29;20052;-84
2022/01/31 04:10:02;;;;;;;15.10;3.85;;;;;;;;;;4909913;29;20067;-81
2022/01/31 04:12:27;;;;;;;12.25;3.70;;;;;;;;;;4910047;29;20048;-84
2022/01/31 04:14:53;;;;;;;12.18;3.30;;;;;;;;;;4909964;29;20074;-84
2022/01/31 04:17:20;;;;;;;15.63;3.88;;;;;;;;;;4904197;29;20079;-81
2022/01/31 04:19:47;;;;;;;16.30;4.13;;;;;;;;;;4908673;29;20045;-83
2022/01/31 04:22:17;;;;;;;13.23;4.03;;;;;;;;;;4920882;29;20047;-83
2022/01/31 04:24:43;;;;;;;14.65;4.25;;;;;;;;;;4926746;29;20051;-82
2022/01/31 04:27:16;;;;;;;17.33;3.85;;;;;;;;;;4926633;29;20103;-83
2022/01/31 04:29:44;;;;;;;19.00;4.53;;;;;;;;;;4926264;29;20066;-83
2022/01/31 04:32:10;;;;;;;15.82;4.60;;;;;;;;;;4911294;29;20051;-82
2022/01/31 04:34:36;;;;;;;10.48;3.83;;;;;;;;;;4927697;29;20043;-83
2022/01/31 04:37:02;;;;;;;12.80;3.72;;;;;;;;;;4926895;29;20129;-83
2022/01/31 04:39:29;;;;;;;13.85;3.72;;;;;;;;;;4928157;29;20055;-83
2022/01/31 04:41:55;;;;;;;13.32;4.03;;;;;;;;;;4927360;29;20039;-83
2022/01/31 04:44:22;;;;;;;15.95;4.45;;;;;;;;;;4928269;29;20043;-83
2022/01/31 04:46:52;;;;;;;13.05;4.60;;;;;;;;;;4927923;29;20477;-83
2022/01/31 04:49:21;;;;;;;17.83;4.07;;;;;;;;;;4929462;29;20082;-82
2022/01/31 04:51:48;;;;;;;19.40;4.45;;;;;;;;;;4927438;29;20074;-83
2022/01/31 04:54:14;;;;;;;14.35;4.15;;;;;;;;;;4927603;29;20513;-83
2022/01/31 04:56:42;;;;;;;17.90;4.82;;;;;;;;;;4907085;29;20053;-81
2022/01/31 04:59:09;;;;;;;14.32;4.07;;;;;;;;;;4896041;29;20052;-82
2022/01/31 05:01:39;;;;;;;13.50;4.78;;;;;;;;;;4911644;29;20064;-84
2022/01/31 05:04:05;;;;;;;14.32;4.97;;;;;;;;;;4912783;29;20052;-83
2022/01/31 05:06:36;;;;;;;19.85;4.82;;;;;;;;;;4824841;29;20053;-81
2022/01/31 05:09:02;;;;;;;22.17;5.28;;;;;;;;;;4844700;29;20112;-81
2022/01/31 05:11:28;;;;;;;21.17;4.57;;;;;;;;;;4857180;29;20067;-82
2022/01/31 05:13:54;;;;;;;12.85;5.40;;;;;;;;;;4860715;29;20527;-80
2022/01/31 05:16:20;;;;;;;23.02;5.60;;;;;;;;;;4863759;29;20583;-79
2022/01/31 05:18:46;;;;;;;18.85;5.05;;;;;;;;;;4858228;29;20049;-81
2022/01/31 05:21:12;;;;;;;17.77;5.10;;;;;;;;;;4866092;29;20049;-80
2022/01/31 05:23:38;;;;;;;16.83;5.03;;;;;;;;;;4838027;29;20096;-78
2022/01/31 05:26:04;;;;;;;17.38;4.78;;;;;;;;;;4839007;29;20050;-79
2022/01/31 05:28:30;;;;;;;17.35;4.60;;;;;;;;;;4836678;29;20534;-79
2022/01/31 05:30:56;;;;;;;15.15;4.90;;;;;;;;;;4850999;29;20049;-80
2022/01/31 05:33:22;;;;;;;15.75;4.65;;;;;;;;;;4851490;29;20056;-80
2022/01/31 05:35:48;;;;;;;14.63;4.40;;;;;;;;;;4851593;29;20077;-79
2022/01/31 05:38:13;;;;;;;18.23;5.18;;;;;;;;;;4852411;29;20048;-80
2022/01/31 05:40:40;;;;;;;13.55;4.72;;;;;;;;;;4850820;29;20398;-79
2022/01/31 05:43:06;;;;;;;12.35;4.65;;;;;;;;;;4850545;29;20453;-82
2022/01/31 05:45:32;;;;;;;12.10;4.30;;;;;;;;;;4846399;29;20082;-78
2022/01/31 05:47:58;;;;;;;12.23;4.07;;;;;;;;;;4849742;29;20053;-74
2022/01/31 05:50:24;;;;;;;13.50;4.25;;;;;;;;;;4849120;29;20049;-75
2022/01/31 05:52:51;;;;;;;10.85;3.97;;;;;;;;;;4864937;29;20072;-73
2022/01/31 05:55:17;;;;;;;13.50;4.50;;;;;;;;;;4850244;29;20042;-73
2022/01/31 05:57:43;;;;;;;10.35;4.25;;;;;;;;;;4864186;29;20057;-74
2022/01/31 06:00:11;;;;;;;9.63;3.75;;;;;;;;;;4849403;29;20703;-74
2022/01/31 06:02:39;;;;;;;13.40;4.68;;;;;;;;;;4856520;29;20049;-73
2022/01/31 06:05:05;;;;;;;8.82;3.63;;;;;;;;;;4857287;29;20029;-74
2022/01/31 06:07:31;;;;;;;9.43;3.60;;;;;;;;;;4860930;29;20522;-74
2022/01/31 06:09:57;;;;;;;10.55;4.10;;;;;;;;;;4854583;29;20049;-79
2022/01/31 06:12:23;;;;;;;11.38;3.67;;;;;;;;;;4853589;29;20467;-77
2022/01/31 06:14:49;;;;;;;9.13;3.85;;;;;;;;;;4843408;29;20041;-75
2022/01/31 06:17:15;;;;;;;11.32;3.97;;;;;;;;;;4849279;29;20591;-74
2022/01/31 06:19:41;;;;;;;10.50;4.05;;;;;;;;;;4852495;29;20086;-74
2022/01/31 06:22:07;;;;;;;8.73;3.42;;;;;;;;;;4838758;29;20104;-73
2022/01/31 06:24:33;;;;;;;8.93;3.47;;;;;;;;;;4845214;29;20053;-73
2022/01/31 06:26:59;;;;;;;7.07;4.00;;;;;;;;;;4864031;29;20396;-72
2022/01/31 06:29:26;;;;;;;10.70;3.40;;;;;;;;;;4863351;29;20424;-74
2022/01/31 06:31:53;;;;;;;7.40;3.33;;;;;;;;;;4863128;29;20109;-74
2022/01/31 06:34:18;;;;;;;8.52;3.28;;;;;;;;;;4858794;29;20614;-75
2022/01/31 06:36:45;;;;;;;7.30;3.20;;;;;;;;;;4866947;29;20064;-75
2022/01/31 06:39:11;;;;;;;8.02;3.10;;;;;;;;;;4861384;29;20038;-74
2022/01/31 06:41:37;;;;;;;7.25;2.80;;;;;;;;;;4837324;29;20476;-78
2022/01/31 06:44:03;;;;;;;8.70;3.00;;;;;;;;;;4834301;29;20069;-77
2022/01/31 06:46:29;;;;;;;8.13;3.20;;;;;;;;;;4846225;29;20376;-76
2022/01/31 06:48:55;;;;;;;6.68;2.83;;;;;;;;;;4840466;29;20116;-76
2022/01/31 06:51:20;;;;;;;7.28;2.53;;;;;;;;;;4848193;29;20041;-76
2022/01/31 06:53:48;;;;;;;7.03;2.60;;;;;;;;;;4848434;29;20061;-78
2022/01/31 06:56:18;;;;;;;7.50;3.10;;;;;;;;;;4824759;29;20069;-75
2022/01/31 06:58:44;;;;;;;8.35;2.70;;;;;;;;;;4830894;29;20488;-72
2022/01/31 07:01:11;;;;;;;7.38;2.70;;;;;;;;;;4842149;29;20045;-73
2022/01/31 07:03:37;;;;;;;6.20;2.25;;;;;;;;;;4859378;29;20131;-73
2022/01/31 07:06:03;;;;;;;7.90;2.75;;;;;;;;;;4854562;29;20052;-73
2022/01/31 07:08:29;;;;;;;6.78;2.53;;;;;;;;;;4849076;29;20038;-74
2022/01/31 07:10:55;;;;;;;5.97;2.30;;;;;;;;;;4852125;29;20050;-77
2022/01/31 07:13:39;;;;;;;5.93;2.40;;;;;;;;;;4823726;29;20051;-75
2022/01/31 07:16:06;;;;;;;12.40;5.97;;;;;;;;;;4845316;29;20034;-75
2022/01/31 07:18:34;;;;;;;12.07;5.85;;;;;;;;;;4829169;29;20109;-77
2022/01/31 07:21:00;;;;;;;6.03;2.47;;;;;;;;;;4854015;29;20045;-76
2022/01/31 07:23:29;;;;;;;3.03;1.95;;;;;;;;;;4847664;29;20049;-76
2022/01/31 07:25:55;;;;;;;3.72;2.05;;;;;;;;;;4860181;29;20064;-74
2022/01/31 07:28:21;;;;;;;6.63;1.90;;;;;;;;;;4866036;29;20044;-77
2022/01/31 07:30:50;;;;;;;5.07;1.83;;;;;;;;;;4830532;29;20054;-74
2022/01/31 07:33:17;;;;;;;5.75;2.20;;;;;;;;;;4835146;29;20854;-76
2022/01/31 07:35:47;;;;;;;5.00;1.90;;;;;;;;;;4847477;29;20472;-77
2022/01/31 07:38:13;;;;;;;5.57;2.15;;;;;;;;;;4860974;29;20049;-74
2022/01/31 07:40:39;;;;;;;6.22;2.20;;;;;;;;;;4848920;29;20037;-75
2022/01/31 07:43:05;;;;;;;4.80;2.03;;;;;;;;;;4844369;29;20116;-76
2022/01/31 07:45:31;;;;;;;7.63;2.30;;;;;;;;;;4858552;29;20046;-77
2022/01/31 07:48:00;;;;;;;3.08;1.90;;;;;;;;;;4834694;29;20073;-80
2022/01/31 07:50:27;;;;;;;7.13;3.45;;;;;;;;;;4850820;29;20052;-77
2022/01/31 07:52:53;;;;;;;5.60;2.05;;;;;;;;;;4861788;29;20491;-76
2022/01/31 07:55:19;;;;;;;5.25;1.95;;;;;;;;;;4866313;29;20192;-75
2022/01/31 07:57:47;;;;;;;9.20;2.30;;;;;;;;;;4859197;29;20388;-78
2022/01/31 08:00:13;;;;;;;4.50;2.13;;;;;;;;;;4856205;29;20041;-77
2022/01/31 08:02:40;;;;;;;3.58;1.95;;;;;;;;;;4857529;29;20060;-76
2022/01/31 08:05:07;;;;;;;6.18;2.40;;;;;;;;;;4857400;29;20064;-78
2022/01/31 08:07:35;;;;;;;5.57;2.25;;;;;;;;;;4863041;29;20060;-76
2022/01/31 08:10:03;;;;;;;6.57;2.65;;;;;;;;;;4862096;29;20056;-78
2022/01/31 08:12:30;;;;;;;6.65;2.22;;;;;;;;;;4849104;29;20053;-77
2022/01/31 08:15:03;;;;;;;4.00;2.00;;;;;;;;;;4846041;29;20068;-76
2022/01/31 08:17:29;;;;;;;4.47;2.10;;;;;;;;;;4842092;29;20040;-79
2022/01/31 08:19:55;;;;;;;4.32;2.17;;;;;;;;;;4853542;29;20128;-82
2022/01/31 08:22:20;;;;;;;4.22;2.10;;;;;;;;;;4839372;29;20050;-77
2022/01/31 08:24:46;;;;;;;4.13;2.00;;;;;;;;;;4847565;29;20077;-78
2022/01/31 08:27:12;;;;;;;5.45;2.20;;;;;;;;;;4857078;29;20034;-77
2022/01/31 08:29:39;;;;;;;4.47;2.30;;;;;;;;;;4855617;29;20041;-77
2022/01/31 08:37:17;;;;;;;3.88;1.90;;;;;;;;;;5873456;23;20077;-77
2022/01/31 08:39:42;;;;;;;6.03;2.33;;;;;;;;;;4926188;23;20309;-77
2022/01/31 08:42:09;;;;;;;3.05;1.67;;;;;;;;;;4875838;29;20076;-76
2022/01/31 08:44:35;;;;;;;4.63;1.88;;;;;;;;;;4882725;29;20053;-76
2022/01/31 08:47:01;;;;;;;8.27;1.95;;;;;;;;;;4873474;29;20037;-77
2022/01/31 08:49:26;;;;;;;5.88;1.75;;;;;;;;;;4868123;29;20049;-79
2022/01/31 08:51:52;;;;;;;6.90;2.10;;;;;;;;;;4868352;29;20084;-78
2022/01/31 08:54:20;;;;;;;3.83;1.90;;;;;;;;;;4872655;29;20323;-77
2022/01/31 08:56:47;;;;;;;3.70;1.75;;;;;;;;;;4876572;29;20596;-78
2022/01/31 08:59:18;;;;;;;6.03;1.90;;;;;;;;;;4879401;29;20418;-79
2022/01/31 09:01:52;;;;;;;4.53;2.13;;;;;;;;;;4875160;29;20053;-80
2022/01/31 09:04:32;;;;;;;15.35;7.05;;;;;;;;;;4873543;29;20045;-82
2022/01/31 09:06:58;;;;;;;4.40;2.00;;;;;;;;;;4878047;29;20169;-78
2022/01/31 09:09:24;;;;;;;4.18;1.75;;;;;;;;;;4868959;29;20043;-77
2022/01/31 09:11:50;;;;;;;7.00;2.90;;;;;;;;;;4882600;29;20627;-74
2022/01/31 09:14:16;;;;;;;4.63;1.88;;;;;;;;;;4887150;29;20095;-76
2022/01/31 09:16:43;;;;;;;9.30;2.20;;;;;;;;;;4894752;29;20048;-75
2022/01/31 09:19:09;;;;;;;4.63;1.85;;;;;;;;;;4897001;29;20158;-75
2022/01/31 09:21:36;;;;;;;6.28;1.90;;;;;;;;;;4895372;29;20035;-75
2022/01/31 09:24:02;;;;;;;6.97;1.92;;;;;;;;;;4894855;29;20401;-76
2022/01/31 09:26:28;;;;;;;5.97;2.15;;;;;;;;;;4890861;29;20056;-76
2022/01/31 09:28:55;;;;;;;5.60;2.30;;;;;;;;;;4901182;29;20036;-80
2022/01/31 09:31:21;;;;;;;6.97;1.98;;;;;;;;;;4898145;29;20044;-80
2022/01/31 09:33:48;;;;;;;8.63;2.25;;;;;;;;;;4891417;29;20055;-76
2022/01/31 09:36:14;;;;;;;5.88;1.85;;;;;;;;;;4899190;29;20059;-81
2022/01/31 09:38:41;;;;;;;3.92;1.70;;;;;;;;;;4885938;29;20475;-79
2022/01/31 09:41:10;;;;;;;7.05;1.60;;;;;;;;;;4885125;29;20049;-78
2022/01/31 09:48:56;;;;;;;5.32;1.80;;;;;;;;;;4870819;29;20037;-79
2022/01/31 09:51:24;;;;;;;5.00;1.77;;;;;;;;;;4870145;29;20064;-77
2022/01/31 09:53:56;;;;;;;5.68;1.95;;;;;;;;;;4877303;29;20063;-79
2022/01/31 09:56:33;;;;;;;4.22;1.50;;;;;;;;;;4878842;29;20044;-79
2022/01/31 09:59:00;;;;;;;5.53;1.55;;;;;;;;;;4887348;29;20048;-78
2022/01/31 10:01:29;;;;;;;6.75;1.80;;;;;;;;;;4888720;29;20056;-80
2022/01/31 10:04:00;;;;;;;3.75;1.45;;;;;;;;;;4887274;29;20068;-77
2022/01/31 10:06:30;;;;;;;6.43;1.48;;;;;;;;;;4884425;29;20028;-77
2022/01/31 10:09:13;;;;;;;8.60;4.07;;;;;;;;;;4883309;29;20051;-75
2022/01/31 10:11:50;;;;;;;7.43;2.10;;;;;;;;;;4893116;29;20040;-76
2022/01/31 10:17:22;;;;;;;5.70;1.70;;;;;;;;;;4887687;29;20391;-75
2022/01/31 10:19:48;;;;;;;2.78;1.10;;;;;;;;;;4876021;29;20486;-77
2022/01/31 10:22:17;;;;;;;1.73;1.15;;;;;;;;;;4872682;29;20581;-76
2022/01/31 10:24:46;;;;;;;1.92;1.00;;;;;;;;;;4873225;29;20110;-74
2022/01/31 10:27:26;;;;;;;4.57;1.60;;;;;;;;;;4884680;29;20043;-76
2022/01/31 10:29:55;;;;;;;3.72;1.30;;;;;;;;;;4891480;29;20060;-74
2022/01/31 10:32:28;;;;;;;3.30;1.35;;;;;;;;;;4871297;29;20049;-85
2022/01/31 10:34:57;;;;;;;3.15;1.08;;;;;;;;;;4874440;29;20482;-83
2022/01/31 10:37:25;;;;;;;3.97;1.60;;;;;;;;;;4883752;29;20519;-84
2022/01/31 10:45:54;;;;;;;4.97;1.33;;;;;;;;;;4888223;29;20048;-74
2022/01/31 10:54:16;;;;;;;2.75;0.93;;;;;;;;;;4883340;29;20041;-75
2022/01/31 10:57:15;;;;;;;3.65;1.10;;;;;;;;;;4866336;29;20056;-75
2022/01/31 10:59:44;;;;;;;4.05;1.30;;;;;;;;;;4852822;29;20053;-76
2022/01/31 11:02:19;;;;;;;2.47;0.90;;;;;;;;;;4897838;29;20430;-75
2022/01/31 11:04:46;;;;;;;12.38;5.38;;;;;;;;;;4879910;29;20048;-75
2022/01/31 11:07:16;;;;;;;3.92;1.80;;;;;;;;;;4896982;29;20052;-76
2022/01/31 11:09:43;;;;;;;2.95;1.10;;;;;;;;;;4885499;29;20086;-73
2022/01/31 11:12:10;;;;;;;1.90;0.98;;;;;;;;;;4869791;29;20045;-74
2022/01/31 11:14:38;;;;;;;3.20;1.00;;;;;;;;;;4896954;29;20481;-74
2022/01/31 11:17:10;;;;;;;4.03;0.93;;;;;;;;;;4883919;29;20032;-75
2022/01/31 11:19:37;;;;;;;2.88;1.25;;;;;;;;;;4892619;29;20049;-76
2022/01/31 11:22:14;;;;;;;3.65;1.38;;;;;;;;;;4900784;29;20032;-74
2022/01/31 11:24:51;;;;;;;2.25;1.00;;;;;;;;;;4883213;29;20070;-74
2022/01/31 11:27:23;;;;;;;1.95;1.00;;;;;;;;;;4889035;29;20041;-74
2022/01/31 11:29:55;;;;;;;1.70;0.85;;;;;;;;;;4849680;29;20064;-74
2022/01/31 11:32:23;;;;;;;2.72;1.13;;;;;;;;;;4876017;29;20511;-73
2022/01/31 11:34:49;;;;;;;1.75;1.05;;;;;;;;;;4880801;29;20816;-74
2022/01/31 11:37:17;;;;;;;1.95;0.93;;;;;;;;;;4886674;29;20061;-73
2022/01/31 11:39:46;;;;;;;3.72;1.15;;;;;;;;;;4887633;29;20052;-73
2022/01/31 11:42:13;;;;;;;1.90;0.80;;;;;;;;;;4871202;29;20056;-73
2022/01/31 11:45:00;;;;;;;3.70;1.17;;;;;;;;;;4885377;29;20028;-73
2022/01/31 11:47:29;;;;;;;1.77;0.82;;;;;;;;;;4876539;29;20036;-73
2022/01/31 11:49:58;;;;;;;3.70;1.00;;;;;;;;;;4879430;29;20049;-74
2022/01/31 11:52:25;;;;;;;3.30;1.23;;;;;;;;;;4884746;29;20209;-73
2022/01/31 11:55:02;;;;;;;3.78;1.02;;;;;;;;;;4885964;29;20043;-73
2022/01/31 11:57:30;;;;;;;3.10;1.10;;;;;;;;;;4858724;29;20048;-73
2022/01/31 12:00:00;;;;;;;2.85;0.98;;;;;;;;;;4874577;29;20470;-73
2022/01/31 12:02:30;;;;;;;7.00;2.97;;;;;;;;;;4869610;29;20041;-78
2022/01/31 12:05:00;;;;;;;11.93;5.70;;;;;;;;;;4882170;29;20193;-76
2022/01/31 12:07:33;;;;;;;3.05;0.88;;;;;;;;;;4883862;29;20048;-76
2022/01/31 12:10:00;;;;;;;2.83;1.05;;;;;;;;;;4887434;29;20032;-76
2022/01/31 12:12:34;;;;;;;2.03;0.90;;;;;;;;;;4886618;29;20067;-76
2022/01/31 12:16:00;;;;;;;3.22;1.00;;;;;;;;;;4871811;29;20591;-76
2022/01/31 12:18:50;;;;;;;1.65;0.80;;;;;;;;;;4871825;29;20584;-77
2022/01/31 12:24:02;;;;;;;;;;;;;;;;;;4890410;29;20478;-76
2022/01/31 12:26:46;;;;;;;4.07;1.48;;;;;;;;;;4883212;29;19928;-73
2022/01/31 12:29:15;;;;;;;1.33;0.80;;;;;;;;;;4885831;29;20494;-74
2022/01/31 12:31:45;;;;;;;3.38;0.80;;;;;;;;;;4890402;29;20052;-74
2022/01/31 12:34:16;;;;;;;3.65;0.90;;;;;;;;;;4890777;29;20604;-77
2022/01/31 12:36:42;;;;;;;1.15;0.55;;;;;;;;;;4879087;29;20098;-76
2022/01/31 12:39:42;;;;;;;2.75;0.90;;;;;;;;;;4865674;29;20499;-77
2022/01/31 12:43:25;;;;;;;3.00;1.10;;;;;;;;;;4887542;29;20033;-81
2022/01/31 12:45:32;;;;;;;1.75;0.90;;;;;;;;;;4859617;29;20164;-81
2022/01/31 12:48:13;;;;;;;2.37;1.00;;;;;;;;;;4868999;29;20589;-77
2022/01/31 12:50:53;;;;;;;1.95;0.88;;;;;;;;;;4872619;29;20052;-84
2022/01/31 12:56:09;;;;;;;2.65;0.90;;;;;;;;;;4890985;29;20381;-78
2022/01/31 12:58:37;;;;;;;2.30;1.10;;;;;;;;;;4892477;29;20048;-77
2022/01/31 13:01:26;;;;;;;1.65;1.20;;;;;;;;;;4898700;29;20044;-76
2022/01/31 13:04:05;;;;;;;1.73;0.90;;;;;;;;;;4893089;29;20047;-78
2022/01/31 13:06:41;;;;;;;3.50;1.10;;;;;;;;;;4896105;29;20040;-78
2022/01/31 13:09:22;;;;;;;1.15;0.77;;;;;;;;;;4873814;29;20383;-79
2022/01/31 13:11:52;;;;;;;;;;;;;;;;;;4891924;29;20494;-78
2022/01/31 13:14:27;;;;;;;2.78;0.88;;;;;;;;;;4895323;29;19954;-76
2022/01/31 13:17:06;;;;;;;2.95;0.88;;;;;;;;;;4880431;29;20479;-76
2022/01/31 13:19:40;;;;;;;2.72;1.05;;;;;;;;;;4878855;29;20069;-75
2022/01/31 13:22:13;;;;;;;2.55;1.20;;;;;;;;;;4898171;29;20455;-75
2022/01/31 13:24:44;;;;;;;2.00;0.85;;;;;;;;;;4891967;29;20041;-75
2022/01/31 13:27:21;;;;;;;0.75;0.60;;;;;;;;;;4892607;29;20471;-76
2022/01/31 13:29:52;;;;;;;5.00;1.20;;;;;;;;;;4886991;29;20498;-76
2022/01/31 13:32:33;;;;;;;1.25;0.80;;;;;;;;;;4871247;29;20045;-77
2022/01/31 13:35:03;;;;;;;0.98;0.65;;;;;;;;;;4885766;29;20463;-75
2022/01/31 13:38:01;;;;;;;1.05;0.80;;;;;;;;;;4861893;29;20072;-76
2022/01/31 13:40:35;;;;;;;1.35;0.90;;;;;;;;;;4888100;29;20085;-81
2022/01/31 13:43:29;;;;;;;1.13;0.70;;;;;;;;;;4865032;29;20416;-80
2022/01/31 13:46:26;;;;;;;1.30;0.77;;;;;;;;;;4852667;29;20072;-80
2022/01/31 13:51:47;;;;;;;1.38;0.70;;;;;;;;;;4879718;29;20033;-82
2022/01/31 13:54:22;;;;;;;2.42;1.00;;;;;;;;;;4886936;29;20754;-82
2022/01/31 13:56:59;;;;;;;0.90;0.90;;;;;;;;;;4889214;29;20676;-81
2022/01/31 13:59:27;;;;;;;3.58;0.80;;;;;;;;;;4890147;29;20040;-78
2022/01/31 14:02:09;;;;;;;3.35;1.05;;;;;;;;;;4889616;29;20064;-74
2022/01/31 14:04:37;;;;;;;;;;;;;;;;;;4887082;29;20050;-75
2022/01/31 14:07:03;;;;;;;3.13;1.17;;;;;;;;;;4886389;29;19930;-76
2022/01/31 14:09:33;;;;;;;3.53;0.90;;;;;;;;;;4888058;29;20057;-76
2022/01/31 14:12:00;;;;;;;1.33;0.93;;;;;;;;;;4885253;29;20045;-76
2022/01/31 14:14:30;;;;;;;1.33;0.80;;;;;;;;;;4902060;29;20072;-76
2022/01/31 14:17:00;;;;;;;3.42;1.08;;;;;;;;;;4905786;29;20568;-75
2022/01/31 14:19:26;;;;;;;1.42;1.33;;;;;;;;;;4877081;29;20036;-76
2022/01/31 14:21:55;;;;;;;0.95;0.70;;;;;;;;;;4876607;29;21136;-76
2022/01/31 14:24:27;;;;;;;1.60;0.93;;;;;;;;;;4875839;29;20052;-80
2022/01/31 14:26:55;;;;;;;2.20;0.63;;;;;;;;;;4889170;29;20044;-73
2022/01/31 14:29:21;;;;;;;2.53;0.95;;;;;;;;;;4878705;29;20049;-74
2022/01/31 14:31:50;;;;;;;2.63;1.00;;;;;;;;;;4874028;29;20090;-74
2022/01/31 14:34:21;;;;;;;1.45;0.80;;;;;;;;;;4880182;29;20364;-74
2022/01/31 14:36:53;;;;;;;2.65;1.10;;;;;;;;;;4879769;29;20120;-76
2022/01/31 14:47:16;;;;;;;1.60;1.08;;;;;;;;;;4877327;29;20052;-75
2022/01/31 14:49:44;;;;;;;1.85;0.88;;;;;;;;;;4876417;29;20037;-75
2022/01/31 14:52:10;;;;;;;2.63;1.08;;;;;;;;;;4878762;29;20506;-76
2022/01/31 14:54:41;;;;;;;0.98;0.88;;;;;;;;;;4889583;29;20064;-76
2022/01/31 14:57:08;;;;;;;1.90;1.02;;;;;;;;;;4882366;29;20131;-77
2022/01/31 14:59:35;;;;;;;2.72;1.02;;;;;;;;;;4882546;29;20627;-76
2022/01/31 15:02:01;;;;;;;2.20;0.88;;;;;;;;;;4885824;29;20375;-77
2022/01/31 15:04:28;;;;;;;1.85;0.82;;;;;;;;;;4893425;29;20048;-76
2022/01/31 15:06:56;;;;;;;1.70;0.82;;;;;;;;;;4886194;29;20051;-77
2022/01/31 15:09:22;;;;;;;1.25;0.68;;;;;;;;;;4898321;29;20056;-79
2022/01/31 15:11:48;;;;;;;0.75;0.68;;;;;;;;;;4891761;29;20044;-78
2022/01/31 15:14:15;;;;;;;1.95;0.90;;;;;;;;;;4889184;29;20534;-78
2022/01/31 15:16:42;;;;;;;1.80;0.90;;;;;;;;;;4881799;29;20059;-77
2022/01/31 15:19:07;;;;;;;1.33;0.80;;;;;;;;;;4887757;29;20051;-78
2022/01/31 15:21:34;;;;;;;1.70;0.77;;;;;;;;;;4886738;29;20589;-78
2022/01/31 15:24:02;;;;;;;2.50;1.10;;;;;;;;;;4901654;29;20059;-78
2022/01/31 15:26:28;;;;;;;2.58;1.08;;;;;;;;;;4886005;29;20039;-79
2022/01/31 15:28:55;;;;;;;1.42;0.82;;;;;;;;;;4887916;29;20037;-78
2022/01/31 15:31:21;;;;;;;2.58;0.70;;;;;;;;;;4880194;29;20043;-76
2022/01/31 15:33:48;;;;;;;1.52;0.63;;;;;;;;;;4888320;29;20045;-77
2022/01/31 15:36:17;;;;;;;0.80;0.55;;;;;;;;;;4857307;29;20037;-76
2022/01/31 15:38:44;;;;;;;2.60;0.80;;;;;;;;;;4880456;29;20480;-77
2022/01/31 15:41:11;;;;;;;2.53;1.00;;;;;;;;;;4869067;29;20504;-76